sensor_id;sensor_type;location;lat;lon;timestamp;P1;durP1;ratioP1;P2;durP2;ratioP2
21743;SDS011;11034;48.556;9.342;2023-07-31T00:00:16;3.65;;;1.55;;
21743;SDS011;11034;48.556;9.342;2023-07-31T00:02:44;5.47;;;1.80;;
21743;SDS011;11034;48.556;9.342;2023-07-31T00:05:15;6.72;;;1.88;;
21743;SDS011;11034;48.556;9.342;2023-07-31T00:07:43;6.47;;;1.75;;
21743;SDS011;11034;48.556;9.342;2023-07-31T00:10:11;3.83;;;1.70;;
21743;SDS011;11034;48.556;9.342;2023-07-31T00:12:40;3.63;;;1.58;;
21743;SDS011;11034;48.556;9.342;2023-07-31T00:15:10;3.88;;;1.50;;
21743;SDS011;11034;48.556;9.342;2023-07-31T00:17:38;3.15;;;1.52;;
21743;SDS011;11034;48.556;9.342;2023-07-31T00:20:06;7.40;;;1.55;;
21743;SDS011;11034;48.556;9.342;2023-07-31T00:22:36;4.72;;;1.70;;
21743;SDS011;11034;48.556;9.342;2023-07-31T00:25:05;3.85;;;1.50;;
21743;SDS011;11034;48.556;9.342;2023-07-31T00:27:33;6.35;;;1.50;;
21743;SDS011;11034;48.556;9.342;2023-07-31T00:30:04;3.45;;;1.52;;
21743;SDS011;11034;48.556;9.342;2023-07-31T00:32:33;3.35;;;1.67;;
21743;SDS011;11034;48.556;9.342;2023-07-31T00:35:01;6.85;;;1.77;;
21743;SDS011;11034;48.556;9.342;2023-07-31T00:37:29;3.75;;;1.65;;
21743;SDS011;11034;48.556;9.342;2023-07-31T00:39:59;4.18;;;1.80;;
21743;SDS011;11034;48.556;9.342;2023-07-31T00:42:27;4.22;;;1.80;;
21743;SDS011;11034;48.556;9.342;2023-07-31T00:44:55;3.78;;;1.50;;
21743;SDS011;11034;48.556;9.342;2023-07-31T00:47:23;3.85;;;1.65;;
21743;SDS011;11034;48.556;9.342;2023-07-31T00:49:51;5.22;;;1.90;;
21743;SDS011;11034;48.556;9.342;2023-07-31T00:52:19;3.42;;;1.70;;
21743;SDS011;11034;48.556;9.342;2023-07-31T00:54:48;4.00;;;1.67;;
21743;SDS011;11034;48.556;9.342;2023-07-31T00:57:18;7.03;;;1.77;;
21743;SDS011;11034;48.556;9.342;2023-07-31T00:59:46;6.10;;;1.70;;
21743;SDS011;11034;48.556;9.342;2023-07-31T01:02:14;4.50;;;1.60;;
21743;SDS011;11034;48.556;9.342;2023-07-31T01:04:42;4.18;;;1.50;;
21743;SDS011;11034;48.556;9.342;2023-07-31T01:07:12;6.90;;;1.90;;
21743;SDS011;11034;48.556;9.342;2023-07-31T01:09:48;6.35;;;1.60;;
21743;SDS011;11034;48.556;9.342;2023-07-31T01:12:26;4.95;;;1.70;;
21743;SDS011;11034;48.556;9.342;2023-07-31T01:15:03;3.30;;;1.60;;
21743;SDS011;11034;48.556;9.342;2023-07-31T01:17:32;3.05;;;1.77;;
21743;SDS011;11034;48.556;9.342;2023-07-31T01:20:01;2.63;;;1.67;;
21743;SDS011;11034;48.556;9.342;2023-07-31T01:22:38;5.55;;;1.73;;
21743;SDS011;11034;48.556;9.342;2023-07-31T01:25:32;3.50;;;1.73;;
21743;SDS011;11034;48.556;9.342;2023-07-31T01:28:25;4.13;;;1.60;;
21743;SDS011;11034;48.556;9.342;2023-07-31T01:31:00;5.70;;;1.67;;
21743;SDS011;11034;48.556;9.342;2023-07-31T01:33:33;4.32;;;1.65;;
21743;SDS011;11034;48.556;9.342;2023-07-31T01:36:02;3.00;;;1.60;;
21743;SDS011;11034;48.556;9.342;2023-07-31T01:38:31;3.08;;;1.60;;
21743;SDS011;11034;48.556;9.342;2023-07-31T01:40:59;5.38;;;2.08;;
21743;SDS011;11034;48.556;9.342;2023-07-31T01:43:28;3.17;;;1.60;;
21743;SDS011;11034;48.556;9.342;2023-07-31T01:45:57;5.07;;;2.15;;
21743;SDS011;11034;48.556;9.342;2023-07-31T01:48:25;3.15;;;1.50;;
21743;SDS011;11034;48.556;9.342;2023-07-31T01:50:53;3.83;;;1.83;;
21743;SDS011;11034;48.556;9.342;2023-07-31T01:53:21;6.57;;;1.70;;
21743;SDS011;11034;48.556;9.342;2023-07-31T01:55:49;2.55;;;1.60;;
21743;SDS011;11034;48.556;9.342;2023-07-31T01:58:17;4.07;;;1.80;;
21743;SDS011;11034;48.556;9.342;2023-07-31T02:00:46;3.83;;;1.73;;
21743;SDS011;11034;48.556;9.342;2023-07-31T02:03:14;3.88;;;1.67;;
21743;SDS011;11034;48.556;9.342;2023-07-31T02:05:45;6.18;;;1.70;;
21743;SDS011;11034;48.556;9.342;2023-07-31T02:08:13;4.00;;;1.80;;
21743;SDS011;11034;48.556;9.342;2023-07-31T02:10:42;6.68;;;2.00;;
21743;SDS011;11034;48.556;9.342;2023-07-31T02:13:10;3.38;;;1.55;;
21743;SDS011;11034;48.556;9.342;2023-07-31T02:15:38;4.50;;;1.92;;
21743;SDS011;11034;48.556;9.342;2023-07-31T02:18:07;6.05;;;1.70;;
21743;SDS011;11034;48.556;9.342;2023-07-31T02:20:36;6.00;;;2.13;;
21743;SDS011;11034;48.556;9.342;2023-07-31T02:23:04;6.05;;;1.75;;
21743;SDS011;11034;48.556;9.342;2023-07-31T02:25:32;6.18;;;1.88;;
21743;SDS011;11034;48.556;9.342;2023-07-31T02:28:00;4.63;;;2.08;;
21743;SDS011;11034;48.556;9.342;2023-07-31T02:30:28;5.93;;;1.85;;
21743;SDS011;11034;48.556;9.342;2023-07-31T02:32:56;4.00;;;1.80;;
21743;SDS011;11034;48.556;9.342;2023-07-31T02:35:25;4.38;;;1.75;;
21743;SDS011;11034;48.556;9.342;2023-07-31T02:37:53;4.50;;;1.77;;
21743;SDS011;11034;48.556;9.342;2023-07-31T02:40:21;5.28;;;1.90;;
21743;SDS011;11034;48.556;9.342;2023-07-31T02:42:49;5.63;;;1.92;;
21743;SDS011;11034;48.556;9.342;2023-07-31T02:45:18;5.22;;;1.90;;
21743;SDS011;11034;48.556;9.342;2023-07-31T02:47:46;8.38;;;2.08;;
21743;SDS011;11034;48.556;9.342;2023-07-31T02:50:14;3.75;;;1.70;;
21743;SDS011;11034;48.556;9.342;2023-07-31T02:52:43;3.65;;;1.58;;
21743;SDS011;11034;48.556;9.342;2023-07-31T02:55:11;6.07;;;1.98;;
21743;SDS011;11034;48.556;9.342;2023-07-31T02:57:39;4.30;;;2.22;;
21743;SDS011;11034;48.556;9.342;2023-07-31T03:00:08;3.70;;;1.70;;
21743;SDS011;11034;48.556;9.342;2023-07-31T03:02:36;5.35;;;1.60;;
21743;SDS011;11034;48.556;9.342;2023-07-31T03:05:04;5.25;;;1.80;;
21743;SDS011;11034;48.556;9.342;2023-07-31T03:07:33;4.85;;;1.58;;
21743;SDS011;11034;48.556;9.342;2023-07-31T03:10:02;5.80;;;1.88;;
21743;SDS011;11034;48.556;9.342;2023-07-31T03:12:31;6.40;;;2.13;;
21743;SDS011;11034;48.556;9.342;2023-07-31T03:14:59;6.47;;;2.05;;
21743;SDS011;11034;48.556;9.342;2023-07-31T03:17:27;4.35;;;2.08;;
21743;SDS011;11034;48.556;9.342;2023-07-31T03:19:55;7.15;;;1.80;;
21743;SDS011;11034;48.556;9.342;2023-07-31T03:22:23;4.13;;;1.60;;
21743;SDS011;11034;48.556;9.342;2023-07-31T03:24:51;6.43;;;2.00;;
21743;SDS011;11034;48.556;9.342;2023-07-31T03:27:21;6.03;;;1.83;;
21743;SDS011;11034;48.556;9.342;2023-07-31T03:29:49;5.32;;;1.73;;
21743;SDS011;11034;48.556;9.342;2023-07-31T03:32:18;4.03;;;1.65;;
21743;SDS011;11034;48.556;9.342;2023-07-31T03:34:46;3.72;;;1.73;;
21743;SDS011;11034;48.556;9.342;2023-07-31T03:37:14;6.38;;;1.77;;
21743;SDS011;11034;48.556;9.342;2023-07-31T03:39:42;5.70;;;1.70;;
21743;SDS011;11034;48.556;9.342;2023-07-31T03:42:10;4.88;;;1.80;;
21743;SDS011;11034;48.556;9.342;2023-07-31T03:44:39;6.40;;;1.67;;
21743;SDS011;11034;48.556;9.342;2023-07-31T03:47:08;5.30;;;1.98;;
21743;SDS011;11034;48.556;9.342;2023-07-31T03:49:36;5.97;;;2.20;;
21743;SDS011;11034;48.556;9.342;2023-07-31T03:52:04;3.33;;;2.00;;
21743;SDS011;11034;48.556;9.342;2023-07-31T03:54:33;5.13;;;1.95;;
21743;SDS011;11034;48.556;9.342;2023-07-31T03:57:01;4.05;;;1.88;;
21743;SDS011;11034;48.556;9.342;2023-07-31T03:59:29;7.18;;;1.83;;
21743;SDS011;11034;48.556;9.342;2023-07-31T04:01:59;3.53;;;1.67;;
21743;SDS011;11034;48.556;9.342;2023-07-31T04:04:27;4.90;;;1.90;;
21743;SDS011;11034;48.556;9.342;2023-07-31T04:06:55;6.93;;;1.58;;
21743;SDS011;11034;48.556;9.342;2023-07-31T04:09:23;4.90;;;1.92;;
21743;SDS011;11034;48.556;9.342;2023-07-31T04:11:51;3.42;;;1.80;;
21743;SDS011;11034;48.556;9.342;2023-07-31T04:14:19;4.20;;;1.90;;
21743;SDS011;11034;48.556;9.342;2023-07-31T04:16:47;7.30;;;1.98;;
21743;SDS011;11034;48.556;9.342;2023-07-31T04:19:17;3.90;;;1.63;;
21743;SDS011;11034;48.556;9.342;2023-07-31T04:21:45;8.40;;;2.25;;
21743;SDS011;11034;48.556;9.342;2023-07-31T04:24:13;3.38;;;1.63;;
21743;SDS011;11034;48.556;9.342;2023-07-31T04:26:41;3.95;;;1.75;;
21743;SDS011;11034;48.556;9.342;2023-07-31T04:29:09;5.75;;;1.80;;
21743;SDS011;11034;48.556;9.342;2023-07-31T04:31:37;4.18;;;1.50;;
21743;SDS011;11034;48.556;9.342;2023-07-31T04:34:05;4.35;;;1.55;;
21743;SDS011;11034;48.556;9.342;2023-07-31T04:36:35;2.60;;;1.60;;
21743;SDS011;11034;48.556;9.342;2023-07-31T04:39:03;2.78;;;1.50;;
21743;SDS011;11034;48.556;9.342;2023-07-31T04:41:32;3.45;;;1.60;;
21743;SDS011;11034;48.556;9.342;2023-07-31T04:44:01;5.75;;;1.70;;
21743;SDS011;11034;48.556;9.342;2023-07-31T04:46:30;4.70;;;1.58;;
21743;SDS011;11034;48.556;9.342;2023-07-31T04:48:58;4.82;;;1.80;;
21743;SDS011;11034;48.556;9.342;2023-07-31T04:51:26;2.95;;;1.50;;
21743;SDS011;11034;48.556;9.342;2023-07-31T04:53:55;5.93;;;2.15;;
21743;SDS011;11034;48.556;9.342;2023-07-31T04:56:24;5.07;;;1.63;;
21743;SDS011;11034;48.556;9.342;2023-07-31T04:58:52;5.40;;;1.90;;
21743;SDS011;11034;48.556;9.342;2023-07-31T05:01:20;3.20;;;1.67;;
21743;SDS011;11034;48.556;9.342;2023-07-31T05:03:48;3.53;;;1.40;;
21743;SDS011;11034;48.556;9.342;2023-07-31T05:06:16;3.58;;;1.80;;
21743;SDS011;11034;48.556;9.342;2023-07-31T05:08:44;3.03;;;1.50;;
21743;SDS011;11034;48.556;9.342;2023-07-31T05:11:14;2.65;;;1.40;;
21743;SDS011;11034;48.556;9.342;2023-07-31T05:13:42;6.75;;;1.90;;
21743;SDS011;11034;48.556;9.342;2023-07-31T05:16:10;3.55;;;1.50;;
21743;SDS011;11034;48.556;9.342;2023-07-31T05:18:38;6.72;;;1.83;;
21743;SDS011;11034;48.556;9.342;2023-07-31T05:21:06;2.78;;;1.52;;
21743;SDS011;11034;48.556;9.342;2023-07-31T05:23:34;4.90;;;1.80;;
21743;SDS011;11034;48.556;9.342;2023-07-31T05:26:03;3.85;;;1.67;;
21743;SDS011;11034;48.556;9.342;2023-07-31T05:28:33;4.18;;;1.80;;
21743;SDS011;11034;48.556;9.342;2023-07-31T05:31:02;3.70;;;1.45;;
21743;SDS011;11034;48.556;9.342;2023-07-31T05:33:31;7.70;;;1.60;;
21743;SDS011;11034;48.556;9.342;2023-07-31T05:35:59;5.00;;;1.67;;
21743;SDS011;11034;48.556;9.342;2023-07-31T05:38:27;5.22;;;1.80;;
21743;SDS011;11034;48.556;9.342;2023-07-31T05:40:56;4.75;;;1.85;;
21743;SDS011;11034;48.556;9.342;2023-07-31T05:43:24;3.05;;;1.60;;
21743;SDS011;11034;48.556;9.342;2023-07-31T05:45:53;3.92;;;1.70;;
21743;SDS011;11034;48.556;9.342;2023-07-31T05:48:21;3.60;;;1.70;;
21743;SDS011;11034;48.556;9.342;2023-07-31T05:50:49;3.08;;;1.40;;
21743;SDS011;11034;48.556;9.342;2023-07-31T05:53:18;4.80;;;1.88;;
21743;SDS011;11034;48.556;9.342;2023-07-31T05:55:46;3.10;;;1.67;;
21743;SDS011;11034;48.556;9.342;2023-07-31T05:58:14;4.35;;;1.60;;
21743;SDS011;11034;48.556;9.342;2023-07-31T06:00:42;2.80;;;1.73;;
21743;SDS011;11034;48.556;9.342;2023-07-31T06:03:11;3.65;;;1.77;;
21743;SDS011;11034;48.556;9.342;2023-07-31T06:05:40;4.85;;;1.60;;
21743;SDS011;11034;48.556;9.342;2023-07-31T06:08:08;3.40;;;1.90;;
21743;SDS011;11034;48.556;9.342;2023-07-31T06:10:36;3.30;;;1.83;;
21743;SDS011;11034;48.556;9.342;2023-07-31T06:13:04;3.70;;;1.60;;
21743;SDS011;11034;48.556;9.342;2023-07-31T06:15:33;6.05;;;1.90;;
21743;SDS011;11034;48.556;9.342;2023-07-31T06:18:01;4.30;;;1.52;;
21743;SDS011;11034;48.556;9.342;2023-07-31T06:20:31;5.65;;;1.80;;
21743;SDS011;11034;48.556;9.342;2023-07-31T06:22:59;6.10;;;1.75;;
21743;SDS011;11034;48.556;9.342;2023-07-31T06:25:27;4.72;;;1.60;;
21743;SDS011;11034;48.556;9.342;2023-07-31T06:27:55;5.22;;;1.83;;
21743;SDS011;11034;48.556;9.342;2023-07-31T06:30:23;5.97;;;1.73;;
21743;SDS011;11034;48.556;9.342;2023-07-31T06:32:53;3.70;;;1.80;;
21743;SDS011;11034;48.556;9.342;2023-07-31T06:35:21;3.00;;;1.83;;
21743;SDS011;11034;48.556;9.342;2023-07-31T06:37:50;5.13;;;1.85;;
21743;SDS011;11034;48.556;9.342;2023-07-31T06:40:19;5.70;;;2.15;;
21743;SDS011;11034;48.556;9.342;2023-07-31T06:42:47;4.35;;;1.55;;
21743;SDS011;11034;48.556;9.342;2023-07-31T06:45:15;4.65;;;1.90;;
21743;SDS011;11034;48.556;9.342;2023-07-31T06:47:43;4.53;;;1.80;;
21743;SDS011;11034;48.556;9.342;2023-07-31T06:50:13;3.78;;;1.80;;
21743;SDS011;11034;48.556;9.342;2023-07-31T06:52:44;4.10;;;1.80;;
21743;SDS011;11034;48.556;9.342;2023-07-31T06:55:17;4.40;;;1.83;;
21743;SDS011;11034;48.556;9.342;2023-07-31T06:57:46;3.30;;;1.52;;
21743;SDS011;11034;48.556;9.342;2023-07-31T07:00:16;3.35;;;1.77;;
21743;SDS011;11034;48.556;9.342;2023-07-31T07:02:45;3.20;;;1.70;;
21743;SDS011;11034;48.556;9.342;2023-07-31T07:05:14;5.05;;;1.63;;
21743;SDS011;11034;48.556;9.342;2023-07-31T07:07:43;3.58;;;1.70;;
21743;SDS011;11034;48.556;9.342;2023-07-31T07:10:11;3.75;;;1.42;;
21743;SDS011;11034;48.556;9.342;2023-07-31T07:12:41;4.78;;;1.70;;
21743;SDS011;11034;48.556;9.342;2023-07-31T07:15:09;4.13;;;1.88;;
21743;SDS011;11034;48.556;9.342;2023-07-31T07:17:37;3.78;;;2.08;;
21743;SDS011;11034;48.556;9.342;2023-07-31T07:20:06;4.90;;;1.75;;
21743;SDS011;11034;48.556;9.342;2023-07-31T07:22:35;5.10;;;1.95;;
21743;SDS011;11034;48.556;9.342;2023-07-31T07:25:04;4.65;;;1.98;;
21743;SDS011;11034;48.556;9.342;2023-07-31T07:27:33;6.32;;;1.90;;
21743;SDS011;11034;48.556;9.342;2023-07-31T07:30:03;3.22;;;1.80;;
21743;SDS011;11034;48.556;9.342;2023-07-31T07:32:32;2.72;;;1.60;;
21743;SDS011;11034;48.556;9.342;2023-07-31T07:35:00;5.65;;;2.00;;
21743;SDS011;11034;48.556;9.342;2023-07-31T07:37:28;4.60;;;2.00;;
21743;SDS011;11034;48.556;9.342;2023-07-31T07:39:59;5.10;;;2.10;;
21743;SDS011;11034;48.556;9.342;2023-07-31T07:42:27;3.90;;;2.05;;
21743;SDS011;11034;48.556;9.342;2023-07-31T07:44:55;8.65;;;1.90;;
21743;SDS011;11034;48.556;9.342;2023-07-31T07:47:24;5.20;;;1.90;;
21743;SDS011;11034;48.556;9.342;2023-07-31T07:49:54;6.38;;;1.75;;
21743;SDS011;11034;48.556;9.342;2023-07-31T07:52:22;7.78;;;2.22;;
21743;SDS011;11034;48.556;9.342;2023-07-31T07:54:50;5.65;;;2.15;;
21743;SDS011;11034;48.556;9.342;2023-07-31T07:57:19;4.40;;;2.20;;
21743;SDS011;11034;48.556;9.342;2023-07-31T07:59:47;4.97;;;2.00;;
21743;SDS011;11034;48.556;9.342;2023-07-31T08:02:15;5.03;;;1.95;;
21743;SDS011;11034;48.556;9.342;2023-07-31T08:04:44;5.35;;;1.98;;
21743;SDS011;11034;48.556;9.342;2023-07-31T08:07:12;3.67;;;1.92;;
21743;SDS011;11034;48.556;9.342;2023-07-31T08:09:41;5.72;;;2.00;;
21743;SDS011;11034;48.556;9.342;2023-07-31T08:12:09;4.40;;;1.90;;
21743;SDS011;11034;48.556;9.342;2023-07-31T08:14:37;5.30;;;1.85;;
21743;SDS011;11034;48.556;9.342;2023-07-31T08:17:05;4.50;;;1.90;;
21743;SDS011;11034;48.556;9.342;2023-07-31T08:19:33;4.90;;;1.90;;
21743;SDS011;11034;48.556;9.342;2023-07-31T08:22:03;6.78;;;2.15;;
21743;SDS011;11034;48.556;9.342;2023-07-31T08:24:31;4.68;;;2.10;;
21743;SDS011;11034;48.556;9.342;2023-07-31T08:26:59;3.45;;;2.00;;
21743;SDS011;11034;48.556;9.342;2023-07-31T08:29:27;3.30;;;1.90;;
21743;SDS011;11034;48.556;9.342;2023-07-31T08:31:55;6.55;;;2.00;;
21743;SDS011;11034;48.556;9.342;2023-07-31T08:34:24;5.53;;;2.13;;
21743;SDS011;11034;48.556;9.342;2023-07-31T08:36:52;4.05;;;2.15;;
21743;SDS011;11034;48.556;9.342;2023-07-31T08:39:21;4.45;;;2.00;;
21743;SDS011;11034;48.556;9.342;2023-07-31T08:41:49;4.88;;;2.50;;
21743;SDS011;11034;48.556;9.342;2023-07-31T08:44:17;4.53;;;2.58;;
21743;SDS011;11034;48.556;9.342;2023-07-31T08:46:46;9.98;;;2.28;;
21743;SDS011;11034;48.556;9.342;2023-07-31T08:49:16;4.55;;;1.90;;
21743;SDS011;11034;48.556;9.342;2023-07-31T08:51:45;6.00;;;2.25;;
21743;SDS011;11034;48.556;9.342;2023-07-31T08:54:17;5.30;;;2.33;;
21743;SDS011;11034;48.556;9.342;2023-07-31T08:56:47;5.53;;;2.40;;
21743;SDS011;11034;48.556;9.342;2023-07-31T08:59:16;4.35;;;2.03;;
21743;SDS011;11034;48.556;9.342;2023-07-31T09:01:47;6.18;;;2.45;;
21743;SDS011;11034;48.556;9.342;2023-07-31T09:04:20;5.40;;;2.22;;
21743;SDS011;11034;48.556;9.342;2023-07-31T09:06:50;5.68;;;2.15;;
21743;SDS011;11034;48.556;9.342;2023-07-31T09:09:24;9.07;;;2.30;;
21743;SDS011;11034;48.556;9.342;2023-07-31T09:11:54;5.65;;;2.35;;
21743;SDS011;11034;48.556;9.342;2023-07-31T09:14:23;6.80;;;2.60;;
21743;SDS011;11034;48.556;9.342;2023-07-31T09:16:52;5.28;;;2.17;;
21743;SDS011;11034;48.556;9.342;2023-07-31T09:19:24;5.95;;;2.25;;
21743;SDS011;11034;48.556;9.342;2023-07-31T09:21:53;5.50;;;2.38;;
21743;SDS011;11034;48.556;9.342;2023-07-31T09:24:25;4.97;;;2.45;;
21743;SDS011;11034;48.556;9.342;2023-07-31T09:26:56;8.02;;;2.22;;
21743;SDS011;11034;48.556;9.342;2023-07-31T09:29:26;6.50;;;2.15;;
21743;SDS011;11034;48.556;9.342;2023-07-31T09:31:55;5.38;;;2.38;;
21743;SDS011;11034;48.556;9.342;2023-07-31T09:34:28;3.92;;;2.40;;
21743;SDS011;11034;48.556;9.342;2023-07-31T09:36:58;4.78;;;2.25;;
21743;SDS011;11034;48.556;9.342;2023-07-31T09:39:29;5.20;;;2.25;;
21743;SDS011;11034;48.556;9.342;2023-07-31T09:42:00;6.10;;;2.30;;
21743;SDS011;11034;48.556;9.342;2023-07-31T09:44:37;4.97;;;2.30;;
21743;SDS011;11034;48.556;9.342;2023-07-31T09:47:13;5.35;;;2.60;;
21743;SDS011;11034;48.556;9.342;2023-07-31T09:49:53;6.07;;;2.55;;
21743;SDS011;11034;48.556;9.342;2023-07-31T09:52:21;5.70;;;2.40;;
21743;SDS011;11034;48.556;9.342;2023-07-31T09:54:49;5.28;;;2.45;;
21743;SDS011;11034;48.556;9.342;2023-07-31T09:57:18;5.60;;;2.53;;
21743;SDS011;11034;48.556;9.342;2023-07-31T09:59:50;5.57;;;2.38;;
21743;SDS011;11034;48.556;9.342;2023-07-31T10:02:21;6.65;;;2.25;;
21743;SDS011;11034;48.556;9.342;2023-07-31T10:04:50;5.53;;;2.33;;
21743;SDS011;11034;48.556;9.342;2023-07-31T10:07:19;6.43;;;2.55;;
21743;SDS011;11034;48.556;9.342;2023-07-31T10:09:50;4.63;;;2.08;;
21743;SDS011;11034;48.556;9.342;2023-07-31T10:12:21;6.13;;;2.65;;
21743;SDS011;11034;48.556;9.342;2023-07-31T10:14:54;5.13;;;2.20;;
21743;SDS011;11034;48.556;9.342;2023-07-31T10:17:22;5.07;;;2.38;;
21743;SDS011;11034;48.556;9.342;2023-07-31T10:19:51;5.10;;;2.50;;
21743;SDS011;11034;48.556;9.342;2023-07-31T10:22:20;6.10;;;2.10;;
21743;SDS011;11034;48.556;9.342;2023-07-31T10:24:49;5.13;;;2.10;;
21743;SDS011;11034;48.556;9.342;2023-07-31T10:27:21;5.85;;;2.17;;
21743;SDS011;11034;48.556;9.342;2023-07-31T10:29:50;5.35;;;2.15;;
21743;SDS011;11034;48.556;9.342;2023-07-31T10:32:20;5.95;;;2.20;;
21743;SDS011;11034;48.556;9.342;2023-07-31T10:34:49;5.80;;;2.60;;
21743;SDS011;11034;48.556;9.342;2023-07-31T10:37:23;5.93;;;2.80;;
21743;SDS011;11034;48.556;9.342;2023-07-31T10:39:56;7.20;;;2.53;;
21743;SDS011;11034;48.556;9.342;2023-07-31T10:42:34;4.93;;;2.50;;
21743;SDS011;11034;48.556;9.342;2023-07-31T10:45:05;8.45;;;2.40;;
21743;SDS011;11034;48.556;9.342;2023-07-31T10:47:37;4.95;;;2.17;;
21743;SDS011;11034;48.556;9.342;2023-07-31T10:50:13;6.22;;;2.58;;
21743;SDS011;11034;48.556;9.342;2023-07-31T10:52:44;5.60;;;2.20;;
21743;SDS011;11034;48.556;9.342;2023-07-31T10:55:24;4.00;;;2.25;;
21743;SDS011;11034;48.556;9.342;2023-07-31T10:57:58;6.75;;;2.65;;
21743;SDS011;11034;48.556;9.342;2023-07-31T11:00:33;6.93;;;2.60;;
21743;SDS011;11034;48.556;9.342;2023-07-31T11:03:05;4.65;;;2.53;;
21743;SDS011;11034;48.556;9.342;2023-07-31T11:05:42;6.45;;;2.58;;
21743;SDS011;11034;48.556;9.342;2023-07-31T11:08:13;5.80;;;2.42;;
21743;SDS011;11034;48.556;9.342;2023-07-31T11:10:43;4.97;;;2.53;;
21743;SDS011;11034;48.556;9.342;2023-07-31T11:13:13;5.63;;;2.30;;
21743;SDS011;11034;48.556;9.342;2023-07-31T11:15:42;5.10;;;2.42;;
21743;SDS011;11034;48.556;9.342;2023-07-31T11:18:10;5.15;;;2.20;;
21743;SDS011;11034;48.556;9.342;2023-07-31T11:20:39;6.75;;;2.50;;
21743;SDS011;11034;48.556;9.342;2023-07-31T11:23:08;4.10;;;2.38;;
21743;SDS011;11034;48.556;9.342;2023-07-31T11:25:38;6.53;;;2.13;;
21743;SDS011;11034;48.556;9.342;2023-07-31T11:28:09;4.28;;;2.15;;
21743;SDS011;11034;48.556;9.342;2023-07-31T11:30:43;5.15;;;2.30;;
21743;SDS011;11034;48.556;9.342;2023-07-31T11:33:12;6.70;;;2.33;;
21743;SDS011;11034;48.556;9.342;2023-07-31T11:35:42;5.47;;;2.65;;
21743;SDS011;11034;48.556;9.342;2023-07-31T11:38:12;5.95;;;2.30;;
21743;SDS011;11034;48.556;9.342;2023-07-31T11:40:49;3.30;;;2.33;;
21743;SDS011;11034;48.556;9.342;2023-07-31T11:43:17;4.35;;;2.67;;
21743;SDS011;11034;48.556;9.342;2023-07-31T11:45:48;4.75;;;2.50;;
21743;SDS011;11034;48.556;9.342;2023-07-31T11:48:18;3.95;;;2.50;;
21743;SDS011;11034;48.556;9.342;2023-07-31T11:50:48;5.65;;;2.70;;
21743;SDS011;11034;48.556;9.342;2023-07-31T11:53:18;4.65;;;2.60;;
21743;SDS011;11034;48.556;9.342;2023-07-31T11:55:48;5.93;;;2.50;;
21743;SDS011;11034;48.556;9.342;2023-07-31T11:58:17;6.80;;;2.70;;
21743;SDS011;11034;48.556;9.342;2023-07-31T12:00:47;6.13;;;2.83;;
21743;SDS011;11034;48.556;9.342;2023-07-31T12:03:16;4.70;;;2.15;;
21743;SDS011;11034;48.556;9.342;2023-07-31T12:05:46;6.13;;;2.15;;
21743;SDS011;11034;48.556;9.342;2023-07-31T12:08:15;4.75;;;2.38;;
21743;SDS011;11034;48.556;9.342;2023-07-31T12:10:43;5.88;;;2.78;;
21743;SDS011;11034;48.556;9.342;2023-07-31T12:13:12;5.38;;;2.30;;
21743;SDS011;11034;48.556;9.342;2023-07-31T12:15:53;5.63;;;2.50;;
21743;SDS011;11034;48.556;9.342;2023-07-31T12:18:23;3.78;;;2.40;;
21743;SDS011;11034;48.556;9.342;2023-07-31T12:20:53;5.22;;;2.58;;
21743;SDS011;11034;48.556;9.342;2023-07-31T12:23:23;5.75;;;2.22;;
21743;SDS011;11034;48.556;9.342;2023-07-31T12:26:01;6.20;;;2.80;;
21743;SDS011;11034;48.556;9.342;2023-07-31T12:28:30;4.10;;;2.42;;
21743;SDS011;11034;48.556;9.342;2023-07-31T12:31:04;4.88;;;2.55;;
21743;SDS011;11034;48.556;9.342;2023-07-31T12:33:34;6.35;;;2.80;;
21743;SDS011;11034;48.556;9.342;2023-07-31T12:36:03;7.60;;;2.70;;
21743;SDS011;11034;48.556;9.342;2023-07-31T12:38:35;5.15;;;2.60;;
21743;SDS011;11034;48.556;9.342;2023-07-31T12:41:06;4.32;;;2.33;;
21743;SDS011;11034;48.556;9.342;2023-07-31T12:43:34;7.40;;;2.97;;
21743;SDS011;11034;48.556;9.342;2023-07-31T12:46:04;5.35;;;2.80;;
21743;SDS011;11034;48.556;9.342;2023-07-31T12:48:34;4.15;;;2.50;;
21743;SDS011;11034;48.556;9.342;2023-07-31T12:51:03;7.75;;;3.25;;
21743;SDS011;11034;48.556;9.342;2023-07-31T12:53:33;4.95;;;2.70;;
21743;SDS011;11034;48.556;9.342;2023-07-31T12:56:01;4.78;;;2.65;;
21743;SDS011;11034;48.556;9.342;2023-07-31T12:58:29;5.30;;;2.90;;
21743;SDS011;11034;48.556;9.342;2023-07-31T13:00:59;6.40;;;2.70;;
21743;SDS011;11034;48.556;9.342;2023-07-31T13:03:29;4.88;;;2.80;;
21743;SDS011;11034;48.556;9.342;2023-07-31T13:05:58;6.35;;;2.80;;
21743;SDS011;11034;48.556;9.342;2023-07-31T13:08:26;8.95;;;2.60;;
21743;SDS011;11034;48.556;9.342;2023-07-31T13:10:54;15.07;;;2.70;;
21743;SDS011;11034;48.556;9.342;2023-07-31T13:13:22;7.40;;;3.00;;
21743;SDS011;11034;48.556;9.342;2023-07-31T13:15:50;4.65;;;2.78;;
21743;SDS011;11034;48.556;9.342;2023-07-31T13:18:19;6.05;;;3.05;;
21743;SDS011;11034;48.556;9.342;2023-07-31T13:20:48;5.15;;;2.60;;
21743;SDS011;11034;48.556;9.342;2023-07-31T13:23:16;4.95;;;2.80;;
21743;SDS011;11034;48.556;9.342;2023-07-31T13:25:44;6.00;;;2.85;;
21743;SDS011;11034;48.556;9.342;2023-07-31T13:28:12;4.65;;;2.70;;
21743;SDS011;11034;48.556;9.342;2023-07-31T13:30:41;6.05;;;2.70;;
21743;SDS011;11034;48.556;9.342;2023-07-31T13:33:09;4.07;;;2.65;;
21743;SDS011;11034;48.556;9.342;2023-07-31T13:36:01;5.82;;;2.78;;
21743;SDS011;11034;48.556;9.342;2023-07-31T13:38:29;6.15;;;2.50;;
21743;SDS011;11034;48.556;9.342;2023-07-31T13:40:57;6.57;;;2.85;;
21743;SDS011;11034;48.556;9.342;2023-07-31T13:43:25;6.72;;;3.20;;
21743;SDS011;11034;48.556;9.342;2023-07-31T13:45:53;5.47;;;2.80;;
21743;SDS011;11034;48.556;9.342;2023-07-31T13:48:21;5.10;;;2.90;;
21743;SDS011;11034;48.556;9.342;2023-07-31T13:50:50;5.75;;;2.95;;
21743;SDS011;11034;48.556;9.342;2023-07-31T13:53:19;4.07;;;2.50;;
21743;SDS011;11034;48.556;9.342;2023-07-31T13:55:47;6.00;;;2.72;;
21743;SDS011;11034;48.556;9.342;2023-07-31T13:58:15;8.82;;;2.70;;
21743;SDS011;11034;48.556;9.342;2023-07-31T14:00:44;5.80;;;2.58;;
21743;SDS011;11034;48.556;9.342;2023-07-31T14:03:12;4.78;;;2.63;;
21743;SDS011;11034;48.556;9.342;2023-07-31T14:05:41;8.82;;;3.45;;
21743;SDS011;11034;48.556;9.342;2023-07-31T14:08:09;5.45;;;2.67;;
21743;SDS011;11034;48.556;9.342;2023-07-31T14:10:38;4.72;;;2.75;;
21743;SDS011;11034;48.556;9.342;2023-07-31T14:15:48;5.82;;;2.83;;
21743;SDS011;11034;48.556;9.342;2023-07-31T14:18:17;3.65;;;2.47;;
21743;SDS011;11034;48.556;9.342;2023-07-31T14:20:46;6.57;;;3.00;;
21743;SDS011;11034;48.556;9.342;2023-07-31T14:23:14;4.80;;;2.47;;
21743;SDS011;11034;48.556;9.342;2023-07-31T14:25:43;6.45;;;2.88;;
21743;SDS011;11034;48.556;9.342;2023-07-31T14:28:11;5.82;;;2.70;;
21743;SDS011;11034;48.556;9.342;2023-07-31T14:30:39;3.70;;;2.60;;
21743;SDS011;11034;48.556;9.342;2023-07-31T14:33:08;5.13;;;2.42;;
21743;SDS011;11034;48.556;9.342;2023-07-31T14:35:36;3.83;;;2.70;;
21743;SDS011;11034;48.556;9.342;2023-07-31T14:38:04;4.30;;;2.42;;
21743;SDS011;11034;48.556;9.342;2023-07-31T14:40:32;5.43;;;2.65;;
21743;SDS011;11034;48.556;9.342;2023-07-31T14:43:01;5.03;;;2.63;;
21743;SDS011;11034;48.556;9.342;2023-07-31T14:45:29;5.55;;;2.58;;
21743;SDS011;11034;48.556;9.342;2023-07-31T14:47:57;4.68;;;2.78;;
21743;SDS011;11034;48.556;9.342;2023-07-31T14:50:25;7.15;;;2.70;;
21743;SDS011;11034;48.556;9.342;2023-07-31T14:52:54;4.20;;;2.63;;
21743;SDS011;11034;48.556;9.342;2023-07-31T14:55:22;5.13;;;3.15;;
21743;SDS011;11034;48.556;9.342;2023-07-31T14:57:50;4.97;;;2.63;;
21743;SDS011;11034;48.556;9.342;2023-07-31T15:00:19;5.38;;;2.75;;
21743;SDS011;11034;48.556;9.342;2023-07-31T15:02:48;5.32;;;2.45;;